Time;durP1;ratioP1;P1;durP2;ratioP2;P2;SDS_P1;SDS_P2;PMS_P1;PMS_P2;Temp;Humidity;BMP_temperature;BMP_pressure;BME280_temperature;BME280_humidity;BME280_pressure;Samples;Min_cycle;Max_cycle;Signal;HPM_P1;HPM_P2
2023/07/10 00:00:59;;;;;;;22.38;14.43;;;;;;;;;;4938244;28;20394;-83
2023/07/10 00:03:25;;;;;;;25.25;16.30;;;;;;;;;;4927896;28;20084;-82
2023/07/10 00:05:51;;;;;;;18.23;13.43;;;;;;;;;;4961585;28;20125;-82
2023/07/10 00:08:17;;;;;;;14.73;13.00;;;;;;;;;;4971467;28;20031;-82
2023/07/10 00:10:44;;;;;;;18.88;12.68;;;;;;;;;;4980354;28;20148;-82
2023/07/10 00:13:13;;;;;;;19.98;12.90;;;;;;;;;;4954401;28;20042;-82
2023/07/10 00:15:39;;;;;;;22.58;13.65;;;;;;;;;;4979639;28;20515;-82
2023/07/10 00:18:09;;;;;;;19.25;13.95;;;;;;;;;;4966137;28;20042;-82
2023/07/10 00:20:35;;;;;;;17.95;12.73;;;;;;;;;;4955189;28;20049;-82
2023/07/10 00:23:01;;;;;;;19.33;13.18;;;;;;;;;;4923249;28;20042;-82
2023/07/10 00:25:27;;;;;;;15.32;13.25;;;;;;;;;;4955809;28;20038;-82
2023/07/10 00:27:53;;;;;;;19.13;14.38;;;;;;;;;;4922042;28;20482;-82
2023/07/10 00:30:20;;;;;;;15.13;11.82;;;;;;;;;;4954941;28;20405;-82
2023/07/10 00:32:46;;;;;;;19.33;13.75;;;;;;;;;;4956573;28;20104;-82
2023/07/10 00:35:17;;;;;;;24.63;15.10;;;;;;;;;;4937412;28;20435;-81
2023/07/10 00:37:47;;;;;;;20.55;14.00;;;;;;;;;;4922996;28;20038;-81
2023/07/10 00:40:20;;;;;;;19.63;14.43;;;;;;;;;;4932983;28;20953;-82
2023/07/10 00:42:46;;;;;;;25.00;15.40;;;;;;;;;;4942910;28;20121;-82
2023/07/10 00:45:13;;;;;;;26.08;16.27;;;;;;;;;;4935289;28;21227;-82
2023/07/10 00:47:40;;;;;;;19.33;13.90;;;;;;;;;;4925137;28;20073;-82
2023/07/10 00:50:09;;;;;;;22.73;14.60;;;;;;;;;;4938411;28;20038;-82
2023/07/10 00:52:36;;;;;;;25.38;15.57;;;;;;;;;;4938464;28;20389;-82
2023/07/10 00:55:02;;;;;;;20.93;15.40;;;;;;;;;;4918873;28;20046;-82
2023/07/10 00:57:33;;;;;;;17.95;13.82;;;;;;;;;;4938135;28;20069;-82
2023/07/10 00:59:59;;;;;;;18.63;14.80;;;;;;;;;;4937816;28;20045;-82
2023/07/10 01:02:25;;;;;;;20.67;15.00;;;;;;;;;;4924945;28;20413;-82
2023/07/10 01:05:02;;;;;;;17.98;14.77;;;;;;;;;;4942303;28;20400;-82
2023/07/10 01:07:28;;;;;;;20.35;13.68;;;;;;;;;;4955190;28;20038;-82
2023/07/10 01:09:56;;;;;;;16.80;13.05;;;;;;;;;;4916220;28;20045;-82
2023/07/10 01:12:22;;;;;;;18.63;13.43;;;;;;;;;;4936365;28;20050;-82
2023/07/10 01:14:48;;;;;;;19.95;13.48;;;;;;;;;;4973010;28;20046;-82
2023/07/10 01:17:14;;;;;;;15.27;11.27;;;;;;;;;;4934588;28;20057;-82
2023/07/10 01:19:41;;;;;;;18.25;14.10;;;;;;;;;;4973802;28;20050;-82
2023/07/10 01:22:10;;;;;;;17.15;13.63;;;;;;;;;;4951604;28;20040;-82
2023/07/10 01:24:37;;;;;;;20.50;13.43;;;;;;;;;;4975380;28;20050;-82
2023/07/10 01:27:04;;;;;;;15.80;11.70;;;;;;;;;;4949154;28;20097;-82
2023/07/10 01:29:47;;;;;;;17.83;13.30;;;;;;;;;;4941356;28;20038;-82
2023/07/10 01:32:13;;;;;;;19.63;14.80;;;;;;;;;;4919583;28;22680;-82
2023/07/10 01:34:44;;;;;;;20.92;14.32;;;;;;;;;;4923895;28;20047;-82
2023/07/10 01:37:10;;;;;;;21.52;14.48;;;;;;;;;;4933857;28;20112;-82
2023/07/10 01:39:43;;;;;;;16.92;14.32;;;;;;;;;;4952556;28;20698;-82
2023/07/10 01:42:09;;;;;;;19.38;14.10;;;;;;;;;;4933379;28;20173;-82
2023/07/10 01:44:36;;;;;;;18.38;14.95;;;;;;;;;;4955754;28;20438;-82
2023/07/10 01:47:03;;;;;;;16.45;12.57;;;;;;;;;;4967837;28;20073;-82
2023/07/10 01:49:35;;;;;;;23.63;14.87;;;;;;;;;;4955931;28;20042;-82
2023/07/10 01:52:02;;;;;;;19.13;15.18;;;;;;;;;;4969020;28;20320;-82
2023/07/10 01:54:29;;;;;;;21.75;15.90;;;;;;;;;;4955484;28;20042;-82
2023/07/10 01:56:55;;;;;;;24.23;15.63;;;;;;;;;;4953864;28;20442;-82
2023/07/10 01:59:21;;;;;;;19.77;13.63;;;;;;;;;;4939773;28;20393;-82
2023/07/10 02:01:47;;;;;;;17.98;15.00;;;;;;;;;;4921106;28;20390;-82
2023/07/10 02:04:13;;;;;;;18.23;15.15;;;;;;;;;;4935424;28;21804;-82
2023/07/10 02:06:39;;;;;;;19.40;16.13;;;;;;;;;;4940702;28;20096;-82
2023/07/10 02:09:05;;;;;;;22.10;17.77;;;;;;;;;;4935796;28;20393;-82
2023/07/10 02:11:34;;;;;;;16.90;14.98;;;;;;;;;;4941060;28;20486;-82
2023/07/10 02:14:01;;;;;;;19.10;15.88;;;;;;;;;;4918903;28;20516;-82
2023/07/10 02:16:27;;;;;;;25.77;19.40;;;;;;;;;;4923664;28;20363;-81
2023/07/10 02:18:53;;;;;;;32.83;20.35;;;;;;;;;;4965499;28;20404;-82
2023/07/10 02:21:19;;;;;;;24.20;18.73;;;;;;;;;;4954408;28;20923;-82
2023/07/10 02:23:47;;;;;;;23.75;19.63;;;;;;;;;;4957294;28;20464;-82
2023/07/10 02:26:13;;;;;;;22.83;17.48;;;;;;;;;;4938715;28;20042;-82
2023/07/10 02:28:39;;;;;;;25.67;19.95;;;;;;;;;;4940884;28;20430;-82
2023/07/10 02:31:06;;;;;;;21.75;17.80;;;;;;;;;;4928867;28;20385;-82
2023/07/10 02:33:32;;;;;;;22.95;19.85;;;;;;;;;;4924592;28;20226;-82
2023/07/10 02:35:58;;;;;;;25.83;19.05;;;;;;;;;;4968426;28;20553;-82
2023/07/10 02:38:24;;;;;;;28.83;20.63;;;;;;;;;;4938811;28;20698;-82
2023/07/10 02:40:51;;;;;;;25.75;20.67;;;;;;;;;;4954626;28;20038;-82
2023/07/10 02:43:17;;;;;;;26.35;20.02;;;;;;;;;;4952733;28;20489;-82
2023/07/10 02:45:43;;;;;;;22.50;19.23;;;;;;;;;;4955625;28;20168;-82
2023/07/10 02:48:09;;;;;;;26.98;21.25;;;;;;;;;;4933840;28;20062;-82
2023/07/10 02:50:35;;;;;;;27.13;21.98;;;;;;;;;;4946347;28;20398;-82
2023/07/10 02:53:01;;;;;;;23.35;19.65;;;;;;;;;;4951349;28;20108;-81
2023/07/10 02:55:27;;;;;;;22.52;19.70;;;;;;;;;;4922855;28;20047;-82
2023/07/10 02:57:53;;;;;;;26.90;20.52;;;;;;;;;;4968122;28;20658;-82
2023/07/10 03:00:19;;;;;;;29.80;20.75;;;;;;;;;;4936590;28;20038;-82
2023/07/10 03:02:45;;;;;;;26.38;21.77;;;;;;;;;;4951542;28;20506;-82
2023/07/10 03:05:11;;;;;;;28.75;20.27;;;;;;;;;;4952398;28;20145;-81
2023/07/10 03:07:37;;;;;;;28.25;21.25;;;;;;;;;;4920843;28;20096;-82
2023/07/10 03:10:03;;;;;;;25.20;21.60;;;;;;;;;;4968396;28;20034;-82
2023/07/10 03:12:29;;;;;;;31.83;22.45;;;;;;;;;;4953701;28;20062;-82
2023/07/10 03:14:56;;;;;;;28.85;23.55;;;;;;;;;;4949411;28;20072;-82
2023/07/10 03:17:22;;;;;;;24.80;22.02;;;;;;;;;;4940434;28;20124;-82
2023/07/10 03:19:48;;;;;;;25.00;21.40;;;;;;;;;;4939751;28;20523;-82
2023/07/10 03:22:14;;;;;;;26.38;21.35;;;;;;;;;;4934002;28;20693;-82
2023/07/10 03:24:40;;;;;;;24.92;21.85;;;;;;;;;;4938924;28;20049;-82
2023/07/10 03:27:06;;;;;;;27.20;22.60;;;;;;;;;;4933320;28;20057;-82
2023/07/10 03:29:35;;;;;;;30.10;23.33;;;;;;;;;;4929507;28;20056;-81
2023/07/10 03:32:01;;;;;;;25.23;22.52;;;;;;;;;;4936340;28;20034;-82
2023/07/10 03:34:27;;;;;;;27.88;22.05;;;;;;;;;;4952554;28;20046;-82
2023/07/10 03:36:53;;;;;;;35.17;25.48;;;;;;;;;;4937497;28;20065;-82
2023/07/10 03:39:19;;;;;;;25.65;22.88;;;;;;;;;;4941863;28;20370;-82
2023/07/10 03:41:45;;;;;;;29.48;23.00;;;;;;;;;;4958006;28;20561;-82
2023/07/10 03:44:11;;;;;;;23.20;20.35;;;;;;;;;;4955802;28;20448;-82
2023/07/10 03:46:37;;;;;;;25.92;23.15;;;;;;;;;;4956345;28;21515;-82
2023/07/10 03:49:04;;;;;;;23.95;19.80;;;;;;;;;;4935418;28;20062;-82
2023/07/10 03:51:30;;;;;;;25.88;21.75;;;;;;;;;;4961072;28;20053;-82
2023/07/10 03:53:56;;;;;;;24.95;19.27;;;;;;;;;;4921085;28;20046;-82
2023/07/10 03:56:22;;;;;;;23.15;20.35;;;;;;;;;;4940713;28;20060;-82
2023/07/10 03:58:49;;;;;;;23.40;20.30;;;;;;;;;;4943441;28;20046;-82
2023/07/10 04:01:15;;;;;;;24.70;21.17;;;;;;;;;;4923421;28;20046;-82
2023/07/10 04:03:41;;;;;;;33.85;25.40;;;;;;;;;;4939230;28;20053;-82
2023/07/10 04:06:07;;;;;;;35.58;26.45;;;;;;;;;;4937202;28;20390;-82
2023/07/10 04:08:34;;;;;;;28.15;24.15;;;;;;;;;;4945284;28;20046;-82
2023/07/10 04:11:02;;;;;;;28.23;23.48;;;;;;;;;;4927655;28;20038;-82
2023/07/10 04:13:28;;;;;;;28.77;24.10;;;;;;;;;;4962342;28;20046;-82
2023/07/10 04:16:00;;;;;;;31.15;23.17;;;;;;;;;;4937327;28;20088;-82
2023/07/10 04:18:28;;;;;;;32.00;25.02;;;;;;;;;;4955517;28;20073;-82
2023/07/10 04:20:54;;;;;;;28.98;23.73;;;;;;;;;;4937063;28;20038;-82
2023/07/10 04:23:20;;;;;;;31.90;24.15;;;;;;;;;;4927560;28;20038;-82
2023/07/10 04:25:46;;;;;;;27.95;24.58;;;;;;;;;;4954616;28;20571;-82
2023/07/10 04:28:12;;;;;;;29.10;23.83;;;;;;;;;;4953310;28;20091;-82
2023/07/10 04:30:38;;;;;;;26.48;22.27;;;;;;;;;;4925561;28;20042;-82
2023/07/10 04:33:08;;;;;;;26.45;22.10;;;;;;;;;;4942929;28;20532;-82
2023/07/10 04:35:34;;;;;;;25.75;22.90;;;;;;;;;;4957606;28;20042;-82
2023/07/10 04:38:00;;;;;;;29.63;23.88;;;;;;;;;;4954273;28;20034;-82
2023/07/10 04:40:26;;;;;;;25.33;22.10;;;;;;;;;;4938735;28;20044;-82
2023/07/10 04:42:54;;;;;;;29.77;24.23;;;;;;;;;;4956413;28;20070;-82
2023/07/10 04:45:20;;;;;;;25.77;23.02;;;;;;;;;;4957259;28;20061;-82
2023/07/10 04:47:46;;;;;;;30.23;23.75;;;;;;;;;;4938741;28;20065;-82
2023/07/10 04:50:12;;;;;;;26.10;22.58;;;;;;;;;;4919246;28;22935;-82
2023/07/10 04:52:38;;;;;;;26.92;24.10;;;;;;;;;;4971760;28;20072;-82
2023/07/10 04:55:04;;;;;;;36.65;26.83;;;;;;;;;;4950556;28;20481;-82
2023/07/10 04:57:30;;;;;;;28.63;24.58;;;;;;;;;;4940885;28;20363;-82
2023/07/10 04:59:56;;;;;;;30.50;23.60;;;;;;;;;;4952656;28;20497;-83
2023/07/10 05:02:23;;;;;;;25.35;22.05;;;;;;;;;;4939222;28;20687;-83
2023/07/10 05:04:49;;;;;;;22.67;20.33;;;;;;;;;;4939031;28;20053;-83
2023/07/10 05:07:15;;;;;;;22.67;20.45;;;;;;;;;;4918212;28;20047;-83
2023/07/10 05:09:41;;;;;;;23.88;20.40;;;;;;;;;;4955413;28;20180;-83
2023/07/10 05:12:07;;;;;;;19.55;17.55;;;;;;;;;;4933819;28;20038;-83
2023/07/10 05:14:33;;;;;;;22.92;17.85;;;;;;;;;;4958987;28;20046;-83
2023/07/10 05:16:59;;;;;;;22.38;18.23;;;;;;;;;;4933988;28;20038;-83
2023/07/10 05:19:26;;;;;;;22.63;20.02;;;;;;;;;;4940052;28;20061;-83
2023/07/10 05:21:54;;;;;;;19.42;17.40;;;;;;;;;;4939567;28;20038;-83
2023/07/10 05:24:20;;;;;;;20.67;18.48;;;;;;;;;;4949242;28;20070;-83
2023/07/10 05:26:47;;;;;;;20.27;17.63;;;;;;;;;;4936358;28;20124;-83
2023/07/10 05:29:13;;;;;;;25.13;18.08;;;;;;;;;;4933642;28;21375;-83
2023/07/10 05:31:39;;;;;;;18.23;16.38;;;;;;;;;;4943136;28;20054;-83
2023/07/10 05:34:05;;;;;;;19.52;15.60;;;;;;;;;;4955980;28;20031;-83
2023/07/10 05:36:31;;;;;;;17.90;16.02;;;;;;;;;;4943489;28;20393;-83
2023/07/10 05:38:57;;;;;;;16.02;13.57;;;;;;;;;;4931905;28;20489;-83
2023/07/10 05:41:23;;;;;;;16.48;14.27;;;;;;;;;;4955987;28;20042;-83
2023/07/10 05:43:49;;;;;;;15.38;13.88;;;;;;;;;;4956358;28;20061;-83
2023/07/10 05:46:15;;;;;;;15.05;13.60;;;;;;;;;;4919926;28;20043;-83
2023/07/10 05:48:41;;;;;;;13.45;12.05;;;;;;;;;;4936928;28;20179;-82
2023/07/10 05:51:07;;;;;;;17.52;13.80;;;;;;;;;;4929119;28;20397;-82
2023/07/10 05:53:33;;;;;;;14.07;12.60;;;;;;;;;;4931498;28;20200;-82
2023/07/10 05:56:00;;;;;;;14.82;12.40;;;;;;;;;;4948264;28;20038;-82
2023/07/10 05:58:27;;;;;;;14.60;12.73;;;;;;;;;;4935478;28;20030;-82
2023/07/10 06:00:56;;;;;;;16.08;14.50;;;;;;;;;;4948194;28;20480;-82
2023/07/10 06:03:22;;;;;;;15.77;14.18;;;;;;;;;;4940508;28;20044;-82
2023/07/10 06:06:08;;;;;;;17.02;14.50;;;;;;;;;;4937932;28;20477;-82
2023/07/10 06:08:35;;;;;;;14.48;12.75;;;;;;;;;;4952906;28;20050;-82
2023/07/10 06:11:01;;;;;;;14.93;13.13;;;;;;;;;;4933861;28;20054;-82
2023/07/10 06:13:27;;;;;;;15.52;11.05;;;;;;;;;;4936919;28;20412;-82
2023/07/10 06:15:55;;;;;;;15.77;13.02;;;;;;;;;;4951221;28;20553;-82
2023/07/10 06:18:21;;;;;;;12.40;11.10;;;;;;;;;;4951800;28;20049;-82
2023/07/10 06:20:52;;;;;;;10.48;8.82;;;;;;;;;;4933279;28;20219;-82
2023/07/10 06:23:18;;;;;;;10.00;7.88;;;;;;;;;;4923665;28;20042;-82
2023/07/10 06:25:44;;;;;;;12.02;8.02;;;;;;;;;;4949864;28;20046;-82
2023/07/10 06:28:11;;;;;;;9.15;7.22;;;;;;;;;;4966859;28;20042;-82
2023/07/10 06:30:46;;;;;;;6.93;6.05;;;;;;;;;;4964097;28;20042;-82
2023/07/10 06:33:12;;;;;;;10.35;6.55;;;;;;;;;;4921046;28;22037;-82
2023/07/10 06:35:38;;;;;;;9.90;6.10;;;;;;;;;;4971773;28;21608;-82
2023/07/10 06:38:04;;;;;;;7.97;5.30;;;;;;;;;;4950947;28;20042;-83
2023/07/10 06:40:30;;;;;;;7.13;5.15;;;;;;;;;;4956544;28;20073;-82
2023/07/10 06:42:57;;;;;;;7.57;5.03;;;;;;;;;;4964871;28;20045;-82
2023/07/10 06:45:23;;;;;;;14.38;4.65;;;;;;;;;;4959920;28;20056;-83
2023/07/10 06:47:49;;;;;;;5.68;4.25;;;;;;;;;;4974096;28;20062;-82
2023/07/10 06:50:15;;;;;;;8.80;4.50;;;;;;;;;;4951441;28;20046;-82
2023/07/10 06:52:42;;;;;;;9.23;4.38;;;;;;;;;;4974806;28;20042;-82
2023/07/10 06:55:10;;;;;;;7.38;4.18;;;;;;;;;;4967727;28;20569;-82
2023/07/10 06:57:36;;;;;;;8.15;3.58;;;;;;;;;;4943875;28;20459;-83
2023/07/10 07:00:02;;;;;;;5.70;3.90;;;;;;;;;;4934354;28;20034;-83
2023/07/10 07:02:28;;;;;;;7.68;3.63;;;;;;;;;;4929138;28;20090;-83
2023/07/10 07:04:54;;;;;;;8.18;3.97;;;;;;;;;;4951167;28;20049;-83
2023/07/10 07:07:20;;;;;;;6.30;4.10;;;;;;;;;;4957637;28;20053;-83
2023/07/10 07:09:46;;;;;;;5.57;3.70;;;;;;;;;;4970609;28;20038;-83
2023/07/10 07:12:12;;;;;;;7.40;3.72;;;;;;;;;;4971895;28;21485;-83
2023/07/10 07:14:38;;;;;;;6.28;3.58;;;;;;;;;;4975008;28;20115;-83
2023/07/10 07:17:04;;;;;;;5.70;3.55;;;;;;;;;;4954923;28;20038;-83
2023/07/10 07:19:30;;;;;;;6.45;3.35;;;;;;;;;;4957300;28;20051;-83
2023/07/10 07:21:58;;;;;;;4.70;2.67;;;;;;;;;;4966281;28;20053;-83
2023/07/10 07:24:24;;;;;;;8.43;3.33;;;;;;;;;;4974987;28;20099;-83
2023/07/10 07:26:50;;;;;;;7.30;3.25;;;;;;;;;;4956371;28;20408;-81
2023/07/10 07:29:16;;;;;;;6.63;3.17;;;;;;;;;;4952979;28;20562;-81
2023/07/10 07:31:42;;;;;;;7.70;3.05;;;;;;;;;;4944372;28;20118;-81
2023/07/10 07:34:09;;;;;;;6.63;3.10;;;;;;;;;;4953316;28;20048;-81
2023/07/10 07:36:36;;;;;;;6.20;2.75;;;;;;;;;;4941974;28;20046;-81
2023/07/10 07:39:03;;;;;;;5.55;2.50;;;;;;;;;;4955288;28;20412;-81
2023/07/10 07:41:29;;;;;;;6.05;2.53;;;;;;;;;;4940703;28;20049;-81
2023/07/10 07:43:55;;;;;;;7.00;2.45;;;;;;;;;;4949985;28;20046;-81
2023/07/10 07:46:21;;;;;;;6.72;2.47;;;;;;;;;;4942150;28;20045;-81
2023/07/10 07:48:48;;;;;;;4.85;2.80;;;;;;;;;;4953155;28;20137;-81
2023/07/10 07:51:14;;;;;;;6.78;2.67;;;;;;;;;;4921057;28;20145;-81
2023/07/10 07:53:43;;;;;;;5.65;2.55;;;;;;;;;;4955517;28;20093;-81
2023/07/10 07:56:09;;;;;;;7.20;3.05;;;;;;;;;;4952852;28;20158;-81
2023/07/10 07:58:36;;;;;;;6.75;2.70;;;;;;;;;;4953731;28;20034;-81
2023/07/10 08:01:02;;;;;;;7.30;2.60;;;;;;;;;;4949871;28;20585;-81
2023/07/10 08:03:28;;;;;;;5.50;2.55;;;;;;;;;;4917095;28;20046;-81
2023/07/10 08:05:54;;;;;;;4.65;2.42;;;;;;;;;;4949815;28;20208;-81
2023/07/10 08:08:21;;;;;;;7.60;2.50;;;;;;;;;;4957088;28;20354;-81
2023/07/10 08:10:48;;;;;;;6.90;3.15;;;;;;;;;;4957481;28;20405;-81
2023/07/10 08:13:14;;;;;;;6.05;2.97;;;;;;;;;;4933608;28;20053;-81
2023/07/10 08:15:40;;;;;;;5.60;3.05;;;;;;;;;;4941263;28;20153;-81
2023/07/10 08:18:06;;;;;;;6.47;3.10;;;;;;;;;;4968500;28;20132;-81
2023/07/10 08:20:33;;;;;;;6.63;2.70;;;;;;;;;;4952947;28;20339;-82
2023/07/10 08:22:59;;;;;;;8.38;2.67;;;;;;;;;;4929243;28;20046;-81
2023/07/10 08:25:25;;;;;;;6.63;2.78;;;;;;;;;;4941908;28;20077;-81
2023/07/10 08:27:51;;;;;;;8.73;2.75;;;;;;;;;;4943981;28;20038;-82
2023/07/10 08:30:17;;;;;;;5.85;2.90;;;;;;;;;;4964255;28;20125;-81
2023/07/10 08:32:43;;;;;;;8.35;3.03;;;;;;;;;;4960557;28;20086;-82
2023/07/10 08:35:09;;;;;;;7.22;2.90;;;;;;;;;;4958722;28;20486;-82
2023/07/10 08:37:38;;;;;;;9.40;2.67;;;;;;;;;;4931161;28;20386;-81
2023/07/10 08:40:05;;;;;;;10.55;2.35;;;;;;;;;;4939750;28;20045;-81
2023/07/10 08:42:32;;;;;;;6.97;2.55;;;;;;;;;;4943189;28;20045;-81
2023/07/10 08:44:58;;;;;;;4.88;2.38;;;;;;;;;;4927563;28;20449;-81
2023/07/10 08:47:25;;;;;;;5.70;2.60;;;;;;;;;;4944827;28;20502;-82
2023/07/10 08:49:56;;;;;;;7.07;2.50;;;;;;;;;;4963815;28;20057;-81
2023/07/10 08:52:27;;;;;;;6.03;2.28;;;;;;;;;;4975053;28;20041;-82
2023/07/10 08:54:53;;;;;;;6.45;2.20;;;;;;;;;;4942169;28;20638;-82
2023/07/10 08:57:22;;;;;;;6.57;2.42;;;;;;;;;;4965980;28;20042;-82
2023/07/10 08:59:49;;;;;;;7.18;2.20;;;;;;;;;;4974666;28;20054;-82
2023/07/10 09:02:16;;;;;;;5.82;2.13;;;;;;;;;;4976207;28;20034;-81
2023/07/10 09:04:42;;;;;;;6.03;2.20;;;;;;;;;;4957877;28;20080;-81
2023/07/10 09:07:08;;;;;;;6.18;1.85;;;;;;;;;;4965629;28;20305;-81
2023/07/10 09:09:42;;;;;;;5.90;2.28;;;;;;;;;;4943922;28;20100;-82
2023/07/10 09:12:22;;;;;;;6.53;1.98;;;;;;;;;;4931566;28;20081;-82
2023/07/10 09:14:53;;;;;;;10.40;2.30;;;;;;;;;;4959856;28;20394;-81
2023/07/10 09:17:39;;;;;;;6.75;2.08;;;;;;;;;;4970615;28;20038;-82
2023/07/10 09:20:06;;;;;;;8.23;2.22;;;;;;;;;;4943525;28;20049;-81
2023/07/10 09:22:32;;;;;;;6.70;2.30;;;;;;;;;;4962494;28;20041;-82
2023/07/10 09:24:59;;;;;;;6.65;2.22;;;;;;;;;;4956879;28;20551;-82
2023/07/10 09:27:25;;;;;;;6.38;2.17;;;;;;;;;;4943862;28;20477;-82
2023/07/10 09:29:51;;;;;;;5.68;2.03;;;;;;;;;;4959505;28;20050;-82
2023/07/10 09:32:18;;;;;;;6.30;2.55;;;;;;;;;;4941207;28;20101;-82
2023/07/10 09:34:54;;;;;;;5.10;2.00;;;;;;;;;;4926257;28;20050;-87
2023/07/10 09:37:21;;;;;;;7.95;2.25;;;;;;;;;;4939719;28;20038;-84
2023/07/10 09:39:47;;;;;;;5.85;2.20;;;;;;;;;;4953181;28;20532;-85
2023/07/10 09:42:14;;;;;;;6.82;2.35;;;;;;;;;;4952262;28;21255;-84
2023/07/10 09:44:48;;;;;;;7.00;2.40;;;;;;;;;;4975894;28;20046;-84
2023/07/10 09:47:14;;;;;;;5.38;2.45;;;;;;;;;;4938962;28;20510;-83
2023/07/10 09:49:52;;;;;;;5.75;1.98;;;;;;;;;;4957976;28;20117;-84
2023/07/10 09:52:25;;;;;;;5.32;1.88;;;;;;;;;;4938486;28;20547;-82
2023/07/10 09:55:03;;;;;;;5.03;2.33;;;;;;;;;;4926361;28;20043;-81
2023/07/10 09:57:29;;;;;;;7.05;2.50;;;;;;;;;;4937143;28;20450;-82
2023/07/10 09:59:57;;;;;;;8.15;2.60;;;;;;;;;;4930406;28;20092;-82
2023/07/10 10:02:27;;;;;;;7.47;2.30;;;;;;;;;;4952049;28;20054;-82
2023/07/10 10:05:14;;;;;;;6.85;2.58;;;;;;;;;;4936890;28;20049;-82
2023/07/10 10:07:44;;;;;;;5.18;2.22;;;;;;;;;;4938314;28;20406;-82
2023/07/10 10:10:19;;;;;;;6.82;2.42;;;;;;;;;;4935782;28;20393;-82
2023/07/10 10:12:46;;;;;;;6.47;2.20;;;;;;;;;;4945393;28;20524;-82
2023/07/10 10:15:26;;;;;;;8.03;2.10;;;;;;;;;;4951015;28;22101;-82
2023/07/10 10:17:57;;;;;;;7.30;2.45;;;;;;;;;;4939279;28;20305;-82
2023/07/10 10:20:28;;;;;;;6.47;2.45;;;;;;;;;;4941303;28;20038;-82
2023/07/10 10:22:54;;;;;;;6.18;2.10;;;;;;;;;;4944794;28;20163;-82
2023/07/10 10:25:20;;;;;;;5.60;1.98;;;;;;;;;;4958738;28;20710;-82
2023/07/10 10:27:52;;;;;;;5.00;1.92;;;;;;;;;;4934572;28;20046;-82
2023/07/10 10:30:22;;;;;;;8.10;2.40;;;;;;;;;;4974598;28;20132;-81
2023/07/10 10:33:00;;;;;;;5.88;1.77;;;;;;;;;;4945510;28;20138;-82
2023/07/10 10:35:30;;;;;;;7.35;2.05;;;;;;;;;;4937156;28;20039;-81
2023/07/10 10:38:14;;;;;;;8.15;2.40;;;;;;;;;;4934054;28;20034;-81
2023/07/10 10:40:41;;;;;;;6.45;2.05;;;;;;;;;;4971309;28;20104;-81
2023/07/10 10:43:07;;;;;;;5.80;2.27;;;;;;;;;;4968111;28;20041;-81
2023/07/10 10:45:33;;;;;;;9.25;2.15;;;;;;;;;;4967421;28;20042;-83
2023/07/10 10:48:04;;;;;;;5.20;2.03;;;;;;;;;;4953277;28;20066;-82
2023/07/10 10:50:30;;;;;;;7.47;2.65;;;;;;;;;;4951676;28;20045;-82
2023/07/10 10:53:05;;;;;;;8.32;2.53;;;;;;;;;;4967791;28;20042;-82
2023/07/10 10:55:31;;;;;;;7.22;1.83;;;;;;;;;;4941245;28;20078;-82
2023/07/10 10:58:06;;;;;;;5.53;2.00;;;;;;;;;;4968353;28;20039;-82
2023/07/10 11:00:41;;;;;;;5.57;2.13;;;;;;;;;;4975939;28;20386;-82
2023/07/10 11:03:13;;;;;;;4.68;1.83;;;;;;;;;;4952668;28;20042;-83
2023/07/10 11:05:40;;;;;;;4.95;1.88;;;;;;;;;;4973328;28;20046;-82
2023/07/10 11:08:10;;;;;;;7.43;2.35;;;;;;;;;;4970089;28;20164;-82
2023/07/10 11:10:37;;;;;;;6.80;1.77;;;;;;;;;;4970569;28;20049;-83
2023/07/10 11:13:08;;;;;;;5.33;1.47;;;;;;;;;;4933900;28;20046;-82
2023/07/10 11:15:35;;;;;;;5.72;1.80;;;;;;;;;;4952819;28;20042;-82
2023/07/10 11:18:01;;;;;;;7.90;2.10;;;;;;;;;;4950236;28;20046;-83
2023/07/10 11:20:27;;;;;;;8.75;2.17;;;;;;;;;;4971307;28;20037;-83
2023/07/10 11:22:54;;;;;;;6.05;1.65;;;;;;;;;;4953033;28;20038;-82
2023/07/10 11:25:38;;;;;;;3.83;1.65;;;;;;;;;;4942758;28;20046;-82
2023/07/10 11:28:05;;;;;;;5.10;1.80;;;;;;;;;;4937987;28;20114;-82
2023/07/10 11:30:32;;;;;;;9.70;2.28;;;;;;;;;;4939263;28;20074;-82
2023/07/10 11:32:58;;;;;;;4.80;1.90;;;;;;;;;;4948893;28;20144;-82
2023/07/10 11:35:24;;;;;;;4.65;1.58;;;;;;;;;;4974129;28;20458;-83
2023/07/10 11:37:50;;;;;;;5.78;1.65;;;;;;;;;;4942438;28;20177;-82
2023/07/10 11:40:29;;;;;;;4.22;1.67;;;;;;;;;;4953019;28;20116;-82
2023/07/10 11:43:01;;;;;;;4.47;1.30;;;;;;;;;;4967994;28;20042;-83
2023/07/10 11:45:31;;;;;;;3.65;1.60;;;;;;;;;;4955004;28;20038;-83
2023/07/10 11:47:57;;;;;;;4.03;1.75;;;;;;;;;;4952166;28;20406;-83
2023/07/10 11:50:24;;;;;;;6.40;1.50;;;;;;;;;;4955424;28;20054;-83
2023/07/10 11:53:09;;;;;;;7.43;1.53;;;;;;;;;;4956773;28;20046;-82
2023/07/10 11:55:41;;;;;;;3.95;1.65;;;;;;;;;;4973656;28;20433;-83
2023/07/10 11:58:21;;;;;;;5.50;1.65;;;;;;;;;;4967572;28;20480;-83
2023/07/10 12:00:47;;;;;;;5.10;1.67;;;;;;;;;;4942849;28;20038;-83
2023/07/10 12:03:13;;;;;;;5.05;1.40;;;;;;;;;;4940127;28;22408;-82
2023/07/10 12:05:39;;;;;;;4.13;1.38;;;;;;;;;;4957865;28;20046;-83
2023/07/10 12:08:08;;;;;;;6.68;1.70;;;;;;;;;;4956685;28;20045;-83
2023/07/10 12:10:38;;;;;;;6.95;1.75;;;;;;;;;;4956058;28;20042;-83
2023/07/10 12:13:13;;;;;;;7.65;2.13;;;;;;;;;;4953845;28;20078;-83
2023/07/10 12:15:41;;;;;;;4.55;1.63;;;;;;;;;;4941288;28;20141;-84
2023/07/10 12:18:07;;;;;;;3.67;1.60;;;;;;;;;;4967282;28;20053;-84
2023/07/10 12:20:33;;;;;;;5.28;1.52;;;;;;;;;;4959386;28;20074;-83
2023/07/10 12:23:06;;;;;;;4.45;1.33;;;;;;;;;;4957942;28;20494;-83
2023/07/10 12:25:32;;;;;;;5.10;1.50;;;;;;;;;;4943277;28;20038;-84
2023/07/10 12:28:01;;;;;;;4.47;1.40;;;;;;;;;;4920344;28;20484;-83
2023/07/10 12:30:27;;;;;;;5.43;1.55;;;;;;;;;;4943426;28;20058;-84
2023/07/10 12:32:54;;;;;;;5.00;1.65;;;;;;;;;;4934887;28;20037;-83
2023/07/10 12:35:30;;;;;;;4.75;1.73;;;;;;;;;;4952727;28;20043;-84
2023/07/10 12:37:58;;;;;;;5.15;1.73;;;;;;;;;;4966733;28;20034;-84
2023/07/10 12:40:24;;;;;;;3.85;1.85;;;;;;;;;;4941004;28;20062;-83
2023/07/10 12:42:50;;;;;;;4.90;1.40;;;;;;;;;;4933183;28;20069;-84
2023/07/10 12:45:17;;;;;;;5.20;1.50;;;;;;;;;;4936778;28;20042;-83
2023/07/10 12:47:50;;;;;;;3.78;1.50;;;;;;;;;;4927008;28;20062;-85
2023/07/10 12:50:18;;;;;;;4.85;1.40;;;;;;;;;;4936557;28;20070;-83
2023/07/10 12:52:44;;;;;;;4.38;1.50;;;;;;;;;;4975176;28;20034;-84
2023/07/10 12:55:16;;;;;;;4.88;1.25;;;;;;;;;;4952148;28;20109;-84
2023/07/10 12:57:42;;;;;;;3.40;1.38;;;;;;;;;;4959296;28;20603;-84
2023/07/10 13:00:10;;;;;;;4.07;1.90;;;;;;;;;;4936797;28;20481;-84
2023/07/10 13:02:46;;;;;;;6.30;1.60;;;;;;;;;;4955071;28;20053;-84
2023/07/10 13:05:20;;;;;;;3.65;1.50;;;;;;;;;;4949353;28;20038;-84
2023/07/10 13:07:48;;;;;;;4.55;1.42;;;;;;;;;;4956711;28;20069;-84
2023/07/10 13:10:14;;;;;;;6.45;1.60;;;;;;;;;;4948297;28;20194;-85
2023/07/10 13:20:06;;;;;;;3.70;1.13;;;;;;;;;;4915065;29;20119;-84
2023/07/10 13:23:38;;;;;;;;;;;;;;;;;;;;;
2023/07/10 13:44:05;;;;;;;;;;;;;;;;;;;;;
2023/07/10 14:01:38;;;;;;;4.95;1.27;;;;;;;;;;4897820;26;20064;-85
2023/07/10 14:04:22;;;;;;;3.65;0.98;;;;;;;;;;4871990;29;20091;-86
2023/07/10 14:09:59;;;;;;;3.15;1.58;;;;;;;;;;4887300;29;20095;-86
2023/07/10 14:13:09;;;;;;;5.55;1.48;;;;;;;;;;4885473;29;20069;-86
2023/07/10 14:19:29;;;;;;;3.22;1.05;;;;;;;;;;4894152;29;20064;-86
2023/07/10 14:21:55;;;;;;;2.95;1.10;;;;;;;;;;4876461;29;20048;-86
2023/07/10 14:27:46;;;;;;;2.50;1.08;;;;;;;;;;4912190;29;20074;-85
2023/07/10 14:30:19;;;;;;;6.60;1.52;;;;;;;;;;4897294;29;22042;-85
2023/07/10 14:33:31;;;;;;;;;;;;;;;;;;;;;
2023/07/10 14:36:35;;;;;;;3.42;1.25;;;;;;;;;;4852840;29;20530;-86
2023/07/10 14:42:36;;;;;;;4.53;1.50;;;;;;;;;;4898409;29;20099;-86
2023/07/10 14:45:05;;;;;;;3.63;1.20;;;;;;;;;;4863445;29;20043;-86
2023/07/10 14:47:32;;;;;;;6.05;1.35;;;;;;;;;;4880559;29;20054;-86
2023/07/10 14:50:21;;;;;;;5.50;1.20;;;;;;;;;;4859388;29;20527;-86
2023/07/10 14:52:48;;;;;;;3.63;1.10;;;;;;;;;;4853187;29;20066;-85
2023/07/10 14:55:15;;;;;;;4.75;0.95;;;;;;;;;;4874100;29;20044;-85
2023/07/10 14:58:13;;;;;;;3.88;1.00;;;;;;;;;;4846376;29;21551;-85
2023/07/10 15:00:49;;;;;;;5.10;1.23;;;;;;;;;;4845837;29;20579;-87
2023/07/10 15:03:18;;;;;;;3.47;1.02;;;;;;;;;;4843870;29;20056;-85
2023/07/10 15:09:44;;;;;;;;;;;;;;;;;;;;;
2023/07/10 15:22:52;;;;;;;3.42;0.88;;;;;;;;;;4857363;23;20139;-85
2023/07/10 15:25:24;;;;;;;2.03;1.02;;;;;;;;;;4825881;29;20059;-85
2023/07/10 15:27:53;;;;;;;3.95;1.00;;;;;;;;;;4842156;29;20056;-84
2023/07/10 15:30:21;;;;;;;3.38;1.15;;;;;;;;;;4857744;29;20045;-84
2023/07/10 15:32:49;;;;;;;3.22;1.10;;;;;;;;;;4845561;29;20052;-84
2023/07/10 15:35:18;;;;;;;3.25;0.85;;;;;;;;;;4845062;29;21057;-84
2023/07/10 15:37:46;;;;;;;2.90;1.08;;;;;;;;;;4829918;29;20040;-84
2023/07/10 15:40:25;;;;;;;2.78;0.90;;;;;;;;;;4842420;29;20072;-84
2023/07/10 15:42:53;;;;;;;1.88;0.90;;;;;;;;;;4829482;29;20432;-84
2023/07/10 15:45:21;;;;;;;3.13;1.02;;;;;;;;;;4843144;29;20099;-85
2023/07/10 15:47:49;;;;;;;3.30;1.08;;;;;;;;;;4858969;29;20458;-84
2023/07/10 15:50:16;;;;;;;5.85;1.13;;;;;;;;;;4855350;29;20901;-84
2023/07/10 15:52:45;;;;;;;3.35;1.15;;;;;;;;;;4877822;29;20051;-85